sensor_id;sensor_type;location;lat;lon;timestamp;temperature;humidity
21403;DHT22;10862;51.886;17.078;2023-02-21T00:02:39;8.10;99.90
21403;DHT22;10862;51.886;17.078;2023-02-21T00:05:23;8.10;99.90
21403;DHT22;10862;51.886;17.078;2023-02-21T00:08:07;8.10;99.90
21403;DHT22;10862;51.886;17.078;2023-02-21T00:10:51;8.10;99.90
21403;DHT22;10862;51.886;17.078;2023-02-21T00:13:36;8.00;99.90
21403;DHT22;10862;51.886;17.078;2023-02-21T00:16:20;8.10;99.90
21403;DHT22;10862;51.886;17.078;2023-02-21T00:19:05;8.10;99.90
21403;DHT22;10862;51.886;17.078;2023-02-21T00:21:49;8.10;99.90
21403;DHT22;10862;51.886;17.078;2023-02-21T00:24:33;8.10;99.90
21403;DHT22;10862;51.886;17.078;2023-02-21T00:27:17;8.20;99.90
21403;DHT22;10862;51.886;17.078;2023-02-21T00:30:01;8.10;99.90
21403;DHT22;10862;51.886;17.078;2023-02-21T00:32:45;8.20;99.90
21403;DHT22;10862;51.886;17.078;2023-02-21T00:35:29;8.20;99.90
21403;DHT22;10862;51.886;17.078;2023-02-21T00:38:13;8.10;99.90
21403;DHT22;10862;51.886;17.078;2023-02-21T00:40:57;8.10;99.90
21403;DHT22;10862;51.886;17.078;2023-02-21T00:43:42;8.10;99.90
21403;DHT22;10862;51.886;17.078;2023-02-21T00:46:26;8.00;99.90
21403;DHT22;10862;51.886;17.078;2023-02-21T00:49:10;8.00;99.90
21403;DHT22;10862;51.886;17.078;2023-02-21T00:51:54;8.00;99.90
21403;DHT22;10862;51.886;17.078;2023-02-21T00:54:39;8.00;99.90
21403;DHT22;10862;51.886;17.078;2023-02-21T00:57:24;8.00;99.90
21403;DHT22;10862;51.886;17.078;2023-02-21T01:00:15;8.00;99.90
21403;DHT22;10862;51.886;17.078;2023-02-21T01:03:00;8.00;99.90
21403;DHT22;10862;51.886;17.078;2023-02-21T01:05:44;8.00;99.90
21403;DHT22;10862;51.886;17.078;2023-02-21T01:08:28;8.00;99.90
21403;DHT22;10862;51.886;17.078;2023-02-21T01:11:17;8.00;99.90
21403;DHT22;10862;51.886;17.078;2023-02-21T01:14:01;8.00;99.90
21403;DHT22;10862;51.886;17.078;2023-02-21T01:16:46;8.00;99.90
21403;DHT22;10862;51.886;17.078;2023-02-21T01:19:30;7.90;99.90
21403;DHT22;10862;51.886;17.078;2023-02-21T01:22:14;7.90;99.90
21403;DHT22;10862;51.886;17.078;2023-02-21T01:24:58;7.90;99.90
21403;DHT22;10862;51.886;17.078;2023-02-21T01:27:42;7.90;99.90
21403;DHT22;10862;51.886;17.078;2023-02-21T01:30:26;7.90;99.90
21403;DHT22;10862;51.886;17.078;2023-02-21T01:33:11;7.90;99.90
21403;DHT22;10862;51.886;17.078;2023-02-21T01:35:55;8.00;99.90
21403;DHT22;10862;51.886;17.078;2023-02-21T01:38:39;8.00;99.90
21403;DHT22;10862;51.886;17.078;2023-02-21T01:41:23;8.00;99.90
21403;DHT22;10862;51.886;17.078;2023-02-21T01:47:14;8.00;99.90
21403;DHT22;10862;51.886;17.078;2023-02-21T01:50:00;8.00;99.90
21403;DHT22;10862;51.886;17.078;2023-02-21T01:52:46;7.90;99.90
21403;DHT22;10862;51.886;17.078;2023-02-21T01:55:32;8.00;99.90
21403;DHT22;10862;51.886;17.078;2023-02-21T01:58:17;7.90;99.90
21403;DHT22;10862;51.886;17.078;2023-02-21T02:01:04;8.00;99.90
21403;DHT22;10862;51.886;17.078;2023-02-21T02:03:49;8.00;99.90
21403;DHT22;10862;51.886;17.078;2023-02-21T02:06:33;7.90;99.90
21403;DHT22;10862;51.886;17.078;2023-02-21T02:09:19;7.90;99.90
21403;DHT22;10862;51.886;17.078;2023-02-21T02:12:49;8.00;99.90
21403;DHT22;10862;51.886;17.078;2023-02-21T02:21:34;7.90;99.90
21403;DHT22;10862;51.886;17.078;2023-02-21T02:27:19;7.90;99.90
21403;DHT22;10862;51.886;17.078;2023-02-21T02:33:10;7.80;99.90
21403;DHT22;10862;51.886;17.078;2023-02-21T02:35:53;7.90;99.90
21403;DHT22;10862;51.886;17.078;2023-02-21T02:38:50;7.90;99.90
21403;DHT22;10862;51.886;17.078;2023-02-21T02:44:18;7.90;99.90
21403;DHT22;10862;51.886;17.078;2023-02-21T02:46:41;7.90;99.90
21403;DHT22;10862;51.886;17.078;2023-02-21T02:49:13;7.90;99.90
21403;DHT22;10862;51.886;17.078;2023-02-21T02:51:40;7.90;99.90
21403;DHT22;10862;51.886;17.078;2023-02-21T02:54:06;7.90;99.90
21403;DHT22;10862;51.886;17.078;2023-02-21T02:56:32;7.90;99.90
21403;DHT22;10862;51.886;17.078;2023-02-21T03:07:22;7.90;99.90
21403;DHT22;10862;51.886;17.078;2023-02-21T03:10:14;7.90;99.90
21403;DHT22;10862;51.886;17.078;2023-02-21T03:13:02;7.90;99.90
21403;DHT22;10862;51.886;17.078;2023-02-21T03:20:51;8.00;99.90
21403;DHT22;10862;51.886;17.078;2023-02-21T03:23:19;8.00;99.90
21403;DHT22;10862;51.886;17.078;2023-02-21T03:25:47;8.00;99.90
21403;DHT22;10862;51.886;17.078;2023-02-21T03:28:14;8.00;99.90
21403;DHT22;10862;51.886;17.078;2023-02-21T03:30:41;8.00;99.90
21403;DHT22;10862;51.886;17.078;2023-02-21T03:33:08;8.00;99.90
21403;DHT22;10862;51.886;17.078;2023-02-21T03:35:34;8.00;99.90
21403;DHT22;10862;51.886;17.078;2023-02-21T03:38:00;8.00;99.90
21403;DHT22;10862;51.886;17.078;2023-02-21T03:40:28;8.00;99.90
21403;DHT22;10862;51.886;17.078;2023-02-21T03:42:55;8.00;99.90
21403;DHT22;10862;51.886;17.078;2023-02-21T03:45:21;8.00;99.90
21403;DHT22;10862;51.886;17.078;2023-02-21T03:47:47;8.00;99.90
21403;DHT22;10862;51.886;17.078;2023-02-21T03:50:13;8.00;99.90
21403;DHT22;10862;51.886;17.078;2023-02-21T03:52:40;8.00;99.90
21403;DHT22;10862;51.886;17.078;2023-02-21T03:55:06;8.10;99.90
21403;DHT22;10862;51.886;17.078;2023-02-21T03:57:32;8.10;99.90
21403;DHT22;10862;51.886;17.078;2023-02-21T03:59:58;8.10;99.90
21403;DHT22;10862;51.886;17.078;2023-02-21T04:02:24;8.10;99.90
21403;DHT22;10862;51.886;17.078;2023-02-21T04:04:50;8.10;99.90
21403;DHT22;10862;51.886;17.078;2023-02-21T04:07:17;10.40;99.90
21403;DHT22;10862;51.886;17.078;2023-02-21T04:09:43;10.50;99.90
21403;DHT22;10862;51.886;17.078;2023-02-21T04:12:09;10.60;99.90
21403;DHT22;10862;51.886;17.078;2023-02-21T04:14:35;10.70;99.90
21403;DHT22;10862;51.886;17.078;2023-02-21T04:17:01;10.80;99.90
21403;DHT22;10862;51.886;17.078;2023-02-21T04:19:26;10.80;99.90
21403;DHT22;10862;51.886;17.078;2023-02-21T04:21:52;10.90;99.90
21403;DHT22;10862;51.886;17.078;2023-02-21T04:24:18;11.00;99.90
21403;DHT22;10862;51.886;17.078;2023-02-21T04:26:43;11.00;99.90
21403;DHT22;10862;51.886;17.078;2023-02-21T04:29:10;11.00;99.90
21403;DHT22;10862;51.886;17.078;2023-02-21T04:31:36;11.10;99.90
21403;DHT22;10862;51.886;17.078;2023-02-21T04:34:01;11.10;99.90
21403;DHT22;10862;51.886;17.078;2023-02-21T04:36:27;11.20;99.90
21403;DHT22;10862;51.886;17.078;2023-02-21T04:38:53;11.20;99.90
21403;DHT22;10862;51.886;17.078;2023-02-21T04:41:19;11.10;99.90
21403;DHT22;10862;51.886;17.078;2023-02-21T04:43:45;11.20;99.90
21403;DHT22;10862;51.886;17.078;2023-02-21T04:46:12;11.10;99.90
21403;DHT22;10862;51.886;17.078;2023-02-21T04:48:47;11.20;99.90
21403;DHT22;10862;51.886;17.078;2023-02-21T04:51:13;11.30;99.90
21403;DHT22;10862;51.886;17.078;2023-02-21T04:53:40;11.20;99.90
21403;DHT22;10862;51.886;17.078;2023-02-21T04:56:06;11.20;99.90
21403;DHT22;10862;51.886;17.078;2023-02-21T04:58:32;11.20;99.90
21403;DHT22;10862;51.886;17.078;2023-02-21T05:00:58;11.20;99.90
21403;DHT22;10862;51.886;17.078;2023-02-21T05:03:23;11.20;99.90
21403;DHT22;10862;51.886;17.078;2023-02-21T05:05:50;11.20;99.90
21403;DHT22;10862;51.886;17.078;2023-02-21T05:08:16;11.20;99.90
21403;DHT22;10862;51.886;17.078;2023-02-21T05:10:42;11.20;99.90
21403;DHT22;10862;51.886;17.078;2023-02-21T05:13:07;11.20;99.90
21403;DHT22;10862;51.886;17.078;2023-02-21T05:15:33;11.20;99.90
21403;DHT22;10862;51.886;17.078;2023-02-21T05:17:59;11.10;99.90
21403;DHT22;10862;51.886;17.078;2023-02-21T05:20:25;11.10;99.90
21403;DHT22;10862;51.886;17.078;2023-02-21T05:22:51;11.10;99.90
21403;DHT22;10862;51.886;17.078;2023-02-21T05:25:20;11.10;99.90
21403;DHT22;10862;51.886;17.078;2023-02-21T05:27:46;11.10;99.90
21403;DHT22;10862;51.886;17.078;2023-02-21T05:30:15;11.10;99.90
21403;DHT22;10862;51.886;17.078;2023-02-21T05:32:41;11.00;99.90
21403;DHT22;10862;51.886;17.078;2023-02-21T05:35:08;11.00;99.90
21403;DHT22;10862;51.886;17.078;2023-02-21T05:37:34;11.00;99.90
21403;DHT22;10862;51.886;17.078;2023-02-21T05:39:59;11.00;99.90
21403;DHT22;10862;51.886;17.078;2023-02-21T05:42:25;11.00;99.90
21403;DHT22;10862;51.886;17.078;2023-02-21T05:44:51;11.00;99.90
21403;DHT22;10862;51.886;17.078;2023-02-21T05:47:17;11.00;99.90
21403;DHT22;10862;51.886;17.078;2023-02-21T05:49:43;11.00;99.90
21403;DHT22;10862;51.886;17.078;2023-02-21T05:52:12;11.00;99.90
21403;DHT22;10862;51.886;17.078;2023-02-21T05:54:38;11.00;99.90
21403;DHT22;10862;51.886;17.078;2023-02-21T05:57:04;11.00;99.90
21403;DHT22;10862;51.886;17.078;2023-02-21T05:59:30;11.00;99.90
21403;DHT22;10862;51.886;17.078;2023-02-21T06:01:55;11.00;99.90
21403;DHT22;10862;51.886;17.078;2023-02-21T06:04:22;10.90;99.90
21403;DHT22;10862;51.886;17.078;2023-02-21T06:06:48;10.90;99.90
21403;DHT22;10862;51.886;17.078;2023-02-21T06:09:14;10.80;99.90
21403;DHT22;10862;51.886;17.078;2023-02-21T06:11:40;10.70;99.90
21403;DHT22;10862;51.886;17.078;2023-02-21T06:14:11;10.60;99.90
21403;DHT22;10862;51.886;17.078;2023-02-21T06:16:38;10.40;99.90
21403;DHT22;10862;51.886;17.078;2023-02-21T06:19:06;10.30;99.90
21403;DHT22;10862;51.886;17.078;2023-02-21T06:21:33;10.20;99.90
21403;DHT22;10862;51.886;17.078;2023-02-21T06:24:00;10.10;99.90
21403;DHT22;10862;51.886;17.078;2023-02-21T06:26:26;9.90;99.90
21403;DHT22;10862;51.886;17.078;2023-02-21T06:28:52;9.80;99.90
21403;DHT22;10862;51.886;17.078;2023-02-21T06:31:19;9.70;99.90
21403;DHT22;10862;51.886;17.078;2023-02-21T06:33:46;9.70;99.90
21403;DHT22;10862;51.886;17.078;2023-02-21T06:36:15;9.60;99.90
21403;DHT22;10862;51.886;17.078;2023-02-21T06:38:44;9.50;99.90
21403;DHT22;10862;51.886;17.078;2023-02-21T06:41:10;9.40;99.90
21403;DHT22;10862;51.886;17.078;2023-02-21T06:43:36;9.40;99.90
21403;DHT22;10862;51.886;17.078;2023-02-21T06:46:02;9.30;99.90
21403;DHT22;10862;51.886;17.078;2023-02-21T06:48:29;9.30;99.90
21403;DHT22;10862;51.886;17.078;2023-02-21T06:50:55;9.20;99.90
21403;DHT22;10862;51.886;17.078;2023-02-21T06:53:20;9.00;99.90
21403;DHT22;10862;51.886;17.078;2023-02-21T06:55:46;8.90;99.90
21403;DHT22;10862;51.886;17.078;2023-02-21T06:58:12;8.70;99.90
21403;DHT22;10862;51.886;17.078;2023-02-21T07:00:38;8.60;99.90
21403;DHT22;10862;51.886;17.078;2023-02-21T07:03:04;8.50;99.90
21403;DHT22;10862;51.886;17.078;2023-02-21T07:05:30;8.40;99.90
21403;DHT22;10862;51.886;17.078;2023-02-21T07:08:00;8.40;99.90
21403;DHT22;10862;51.886;17.078;2023-02-21T07:10:26;8.40;99.90
21403;DHT22;10862;51.886;17.078;2023-02-21T07:12:52;8.30;99.90
21403;DHT22;10862;51.886;17.078;2023-02-21T07:15:18;8.40;99.90
21403;DHT22;10862;51.886;17.078;2023-02-21T07:17:44;8.40;99.90
21403;DHT22;10862;51.886;17.078;2023-02-21T07:20:10;8.40;99.90
21403;DHT22;10862;51.886;17.078;2023-02-21T07:22:35;8.50;99.90
21403;DHT22;10862;51.886;17.078;2023-02-21T07:25:02;8.40;99.90
21403;DHT22;10862;51.886;17.078;2023-02-21T07:27:27;8.40;99.90
21403;DHT22;10862;51.886;17.078;2023-02-21T07:29:53;8.40;99.90
21403;DHT22;10862;51.886;17.078;2023-02-21T07:32:19;8.40;99.90
21403;DHT22;10862;51.886;17.078;2023-02-21T07:34:46;8.40;99.90
21403;DHT22;10862;51.886;17.078;2023-02-21T07:37:12;8.40;99.90
21403;DHT22;10862;51.886;17.078;2023-02-21T07:39:37;8.40;99.90
21403;DHT22;10862;51.886;17.078;2023-02-21T07:42:04;8.50;99.90
21403;DHT22;10862;51.886;17.078;2023-02-21T07:44:30;8.60;99.90
21403;DHT22;10862;51.886;17.078;2023-02-21T07:46:56;8.60;99.90
21403;DHT22;10862;51.886;17.078;2023-02-21T07:49:22;8.60;99.90
21403;DHT22;10862;51.886;17.078;2023-02-21T07:51:48;8.70;99.90
21403;DHT22;10862;51.886;17.078;2023-02-21T07:54:15;8.70;99.90
21403;DHT22;10862;51.886;17.078;2023-02-21T07:56:48;8.70;99.90
21403;DHT22;10862;51.886;17.078;2023-02-21T07:59:14;8.70;99.90
21403;DHT22;10862;51.886;17.078;2023-02-21T08:01:40;8.70;99.90
21403;DHT22;10862;51.886;17.078;2023-02-21T08:04:06;8.80;99.90
21403;DHT22;10862;51.886;17.078;2023-02-21T08:06:35;8.80;99.90
21403;DHT22;10862;51.886;17.078;2023-02-21T08:09:01;8.80;99.90
21403;DHT22;10862;51.886;17.078;2023-02-21T08:11:27;8.80;99.90
21403;DHT22;10862;51.886;17.078;2023-02-21T08:13:53;8.90;99.90
21403;DHT22;10862;51.886;17.078;2023-02-21T08:16:18;8.90;99.90
21403;DHT22;10862;51.886;17.078;2023-02-21T08:18:46;8.90;99.90
21403;DHT22;10862;51.886;17.078;2023-02-21T08:21:14;8.90;99.90
21403;DHT22;10862;51.886;17.078;2023-02-21T08:23:40;8.90;99.90
21403;DHT22;10862;51.886;17.078;2023-02-21T08:26:06;8.90;99.90
21403;DHT22;10862;51.886;17.078;2023-02-21T08:28:31;9.00;99.90
21403;DHT22;10862;51.886;17.078;2023-02-21T08:30:57;9.10;99.90
21403;DHT22;10862;51.886;17.078;2023-02-21T08:33:23;9.10;99.90
21403;DHT22;10862;51.886;17.078;2023-02-21T08:35:49;9.30;99.90
21403;DHT22;10862;51.886;17.078;2023-02-21T08:38:17;9.40;99.90
21403;DHT22;10862;51.886;17.078;2023-02-21T08:40:43;9.40;99.90
21403;DHT22;10862;51.886;17.078;2023-02-21T08:43:10;9.60;99.90
21403;DHT22;10862;51.886;17.078;2023-02-21T08:45:36;9.60;99.90
21403;DHT22;10862;51.886;17.078;2023-02-21T08:48:03;9.70;99.90
21403;DHT22;10862;51.886;17.078;2023-02-21T08:50:29;9.80;99.90
21403;DHT22;10862;51.886;17.078;2023-02-21T08:52:55;9.80;99.90
21403;DHT22;10862;51.886;17.078;2023-02-21T08:55:22;9.80;99.90
21403;DHT22;10862;51.886;17.078;2023-02-21T08:57:49;9.80;99.90
21403;DHT22;10862;51.886;17.078;2023-02-21T09:00:16;9.90;99.90
21403;DHT22;10862;51.886;17.078;2023-02-21T09:02:42;9.80;99.90
21403;DHT22;10862;51.886;17.078;2023-02-21T09:05:15;10.00;99.90
21403;DHT22;10862;51.886;17.078;2023-02-21T09:07:42;10.30;99.90
21403;DHT22;10862;51.886;17.078;2023-02-21T09:10:08;10.30;99.90
21403;DHT22;10862;51.886;17.078;2023-02-21T09:12:35;10.40;99.90
21403;DHT22;10862;51.886;17.078;2023-02-21T09:15:02;10.50;99.90
21403;DHT22;10862;51.886;17.078;2023-02-21T09:17:29;10.60;99.90
21403;DHT22;10862;51.886;17.078;2023-02-21T09:19:59;11.50;99.90
21403;DHT22;10862;51.886;17.078;2023-02-21T09:22:25;12.00;99.90
21403;DHT22;10862;51.886;17.078;2023-02-21T09:24:51;11.60;99.90
21403;DHT22;10862;51.886;17.078;2023-02-21T09:27:17;11.00;99.90
21403;DHT22;10862;51.886;17.078;2023-02-21T09:29:43;12.70;99.90
21403;DHT22;10862;51.886;17.078;2023-02-21T09:32:09;13.00;99.90
21403;DHT22;10862;51.886;17.078;2023-02-21T09:34:35;12.00;99.90
21403;DHT22;10862;51.886;17.078;2023-02-21T09:37:04;12.30;99.90
21403;DHT22;10862;51.886;17.078;2023-02-21T09:39:30;10.80;99.90
21403;DHT22;10862;51.886;17.078;2023-02-21T09:41:56;9.80;99.90
21403;DHT22;10862;51.886;17.078;2023-02-21T09:44:26;9.60;99.90
21403;DHT22;10862;51.886;17.078;2023-02-21T09:47:04;9.60;99.90
21403;DHT22;10862;51.886;17.078;2023-02-21T09:49:34;10.00;99.90
21403;DHT22;10862;51.886;17.078;2023-02-21T09:52:01;11.90;99.90
21403;DHT22;10862;51.886;17.078;2023-02-21T09:54:33;10.60;99.90
21403;DHT22;10862;51.886;17.078;2023-02-21T09:57:04;12.30;99.90
21403;DHT22;10862;51.886;17.078;2023-02-21T09:59:30;12.90;46.50
21403;DHT22;10862;51.886;17.078;2023-02-21T10:07:15;9.90;1.00
21403;DHT22;10862;51.886;17.078;2023-02-21T10:10:08;9.90;1.00
21403;DHT22;10862;51.886;17.078;2023-02-21T10:12:47;9.60;1.00
21403;DHT22;10862;51.886;17.078;2023-02-21T10:15:40;9.60;1.00
21403;DHT22;10862;51.886;17.078;2023-02-21T10:20:48;9.60;1.00
21403;DHT22;10862;51.886;17.078;2023-02-21T10:23:23;9.50;1.00
21403;DHT22;10862;51.886;17.078;2023-02-21T10:25:56;9.30;1.00
21403;DHT22;10862;51.886;17.078;2023-02-21T10:28:24;9.50;1.00
21403;DHT22;10862;51.886;17.078;2023-02-21T10:30:56;10.00;1.00
21403;DHT22;10862;51.886;17.078;2023-02-21T10:33:22;10.30;1.00
21403;DHT22;10862;51.886;17.078;2023-02-21T10:35:48;10.70;1.00
21403;DHT22;10862;51.886;17.078;2023-02-21T10:38:20;10.30;1.00
21403;DHT22;10862;51.886;17.078;2023-02-21T10:40:52;10.10;1.00
21403;DHT22;10862;51.886;17.078;2023-02-21T10:43:48;10.60;1.00
21403;DHT22;10862;51.886;17.078;2023-02-21T10:46:36;10.60;1.00
21403;DHT22;10862;51.886;17.078;2023-02-21T10:50:07;10.20;1.00
21403;DHT22;10862;51.886;17.078;2023-02-21T10:52:25;9.70;1.00
21403;DHT22;10862;51.886;17.078;2023-02-21T10:55:04;10.10;1.00
21403;DHT22;10862;51.886;17.078;2023-02-21T10:57:33;10.00;1.00
21403;DHT22;10862;51.886;17.078;2023-02-21T11:00:04;9.70;1.00
21403;DHT22;10862;51.886;17.078;2023-02-21T11:02:36;9.70;1.00
21403;DHT22;10862;51.886;17.078;2023-02-21T11:05:22;9.70;1.00
21403;DHT22;10862;51.886;17.078;2023-02-21T11:10:39;9.40;1.00
21403;DHT22;10862;51.886;17.078;2023-02-21T11:13:16;9.10;1.00
21403;DHT22;10862;51.886;17.078;2023-02-21T11:15:43;9.20;1.00
21403;DHT22;10862;51.886;17.078;2023-02-21T11:18:21;9.40;1.00
21403;DHT22;10862;51.886;17.078;2023-02-21T11:20:47;9.30;1.00
21403;DHT22;10862;51.886;17.078;2023-02-21T11:23:30;9.30;1.00
21403;DHT22;10862;51.886;17.078;2023-02-21T11:25:59;9.30;1.00
21403;DHT22;10862;51.886;17.078;2023-02-21T11:28:30;9.20;1.00
21403;DHT22;10862;51.886;17.078;2023-02-21T11:33:28;9.00;1.00
21403;DHT22;10862;51.886;17.078;2023-02-21T11:36:17;9.30;1.00
21403;DHT22;10862;51.886;17.078;2023-02-21T11:39:03;9.10;1.00
21403;DHT22;10862;51.886;17.078;2023-02-21T11:41:36;9.20;1.00
21403;DHT22;10862;51.886;17.078;2023-02-21T11:44:17;9.30;1.00
21403;DHT22;10862;51.886;17.078;2023-02-21T11:46:46;9.30;1.00
21403;DHT22;10862;51.886;17.078;2023-02-21T11:54:32;9.70;1.00
21403;DHT22;10862;51.886;17.078;2023-02-21T12:11:46;9.70;1.00
21403;DHT22;10862;51.886;17.078;2023-02-21T12:17:47;9.80;1.00
21403;DHT22;10862;51.886;17.078;2023-02-21T12:25:51;9.80;1.00
21403;DHT22;10862;51.886;17.078;2023-02-21T12:42:17;9.90;1.00
21403;DHT22;10862;51.886;17.078;2023-02-21T12:47:49;9.80;1.00
21403;DHT22;10862;51.886;17.078;2023-02-21T12:50:52;9.70;1.00
21403;DHT22;10862;51.886;17.078;2023-02-21T12:53:22;9.70;1.00
21403;DHT22;10862;51.886;17.078;2023-02-21T12:56:13;9.60;1.00
21403;DHT22;10862;51.886;17.078;2023-02-21T12:58:55;9.40;1.00
21403;DHT22;10862;51.886;17.078;2023-02-21T13:01:33;9.50;1.00
21403;DHT22;10862;51.886;17.078;2023-02-21T13:07:01;9.90;1.00
21403;DHT22;10862;51.886;17.078;2023-02-21T13:09:36;10.10;1.00
21403;DHT22;10862;51.886;17.078;2023-02-21T13:12:08;9.80;1.00
21403;DHT22;10862;51.886;17.078;2023-02-21T13:15:12;9.70;1.00
21403;DHT22;10862;51.886;17.078;2023-02-21T13:17:41;9.50;1.00
21403;DHT22;10862;51.886;17.078;2023-02-21T13:20:17;9.50;1.00
21403;DHT22;10862;51.886;17.078;2023-02-21T13:25:41;9.60;1.00
21403;DHT22;10862;51.886;17.078;2023-02-21T13:30:41;9.70;1.00
21403;DHT22;10862;51.886;17.078;2023-02-21T13:35:49;9.60;1.00
21403;DHT22;10862;51.886;17.078;2023-02-21T13:38:17;9.50;1.00
21403;DHT22;10862;51.886;17.078;2023-02-21T13:41:01;9.60;1.00
21403;DHT22;10862;51.886;17.078;2023-02-21T13:43:30;9.60;1.00
21403;DHT22;10862;51.886;17.078;2023-02-21T13:46:57;9.60;1.00
21403;DHT22;10862;51.886;17.078;2023-02-21T13:52:23;9.40;1.00
21403;DHT22;10862;51.886;17.078;2023-02-21T13:55:23;9.50;1.00
21403;DHT22;10862;51.886;17.078;2023-02-21T14:10:49;9.40;1.00
21403;DHT22;10862;51.886;17.078;2023-02-21T14:13:37;9.50;1.00
21403;DHT22;10862;51.886;17.078;2023-02-21T14:18:39;9.40;1.00
21403;DHT22;10862;51.886;17.078;2023-02-21T14:21:21;9.40;1.00
21403;DHT22;10862;51.886;17.078;2023-02-21T14:23:51;9.40;1.00
21403;DHT22;10862;51.886;17.078;2023-02-21T14:32:15;9.40;1.00
21403;DHT22;10862;51.886;17.078;2023-02-21T14:39:59;9.70;1.00
21403;DHT22;10862;51.886;17.078;2023-02-21T14:45:17;9.20;1.00
21403;DHT22;10862;51.886;17.078;2023-02-21T14:54:05;8.90;1.00
21403;DHT22;10862;51.886;17.078;2023-02-21T14:59:51;8.90;1.00
21403;DHT22;10862;51.886;17.078;2023-02-21T15:13:00;8.70;1.00
21403;DHT22;10862;51.886;17.078;2023-02-21T15:15:34;8.60;1.00
21403;DHT22;10862;51.886;17.078;2023-02-21T15:18:07;8.50;1.00
21403;DHT22;10862;51.886;17.078;2023-02-21T15:20:36;8.50;1.00
21403;DHT22;10862;51.886;17.078;2023-02-21T15:25:36;8.50;1.00
21403;DHT22;10862;51.886;17.078;2023-02-21T15:28:04;8.40;1.00
21403;DHT22;10862;51.886;17.078;2023-02-21T15:33:23;8.40;1.00
21403;DHT22;10862;51.886;17.078;2023-02-21T15:36:02;8.40;1.00
21403;DHT22;10862;51.886;17.078;2023-02-21T15:38:56;8.40;1.00
21403;DHT22;10862;51.886;17.078;2023-02-21T15:41:36;8.40;1.00
21403;DHT22;10862;51.886;17.078;2023-02-21T15:44:09;8.40;1.00
21403;DHT22;10862;51.886;17.078;2023-02-21T15:46:57;8.30;1.00
21403;DHT22;10862;51.886;17.078;2023-02-21T15:49:32;8.30;1.00
21403;DHT22;10862;51.886;17.078;2023-02-21T15:52:01;8.30;1.00
21403;DHT22;10862;51.886;17.078;2023-02-21T15:54:28;8.30;1.00
21403;DHT22;10862;51.886;17.078;2023-02-21T15:59:33;8.30;1.00
21403;DHT22;10862;51.886;17.078;2023-02-21T16:04:39;8.20;1.00
21403;DHT22;10862;51.886;17.078;2023-02-21T16:07:12;8.20;1.00
21403;DHT22;10862;51.886;17.078;2023-02-21T16:09:41;8.10;1.00
21403;DHT22;10862;51.886;17.078;2023-02-21T16:19:40;8.10;1.00
21403;DHT22;10862;51.886;17.078;2023-02-21T16:22:29;8.10;1.00
21403;DHT22;10862;51.886;17.078;2023-02-21T16:30:26;8.00;1.00
21403;DHT22;10862;51.886;17.078;2023-02-21T16:32:57;8.00;1.00
21403;DHT22;10862;51.886;17.078;2023-02-21T16:35:24;8.00;1.00
21403;DHT22;10862;51.886;17.078;2023-02-21T16:37:56;8.00;1.00
21403;DHT22;10862;51.886;17.078;2023-02-21T16:40:27;8.00;1.00
21403;DHT22;10862;51.886;17.078;2023-02-21T16:42:54;8.00;1.00
21403;DHT22;10862;51.886;17.078;2023-02-21T16:45:21;8.00;1.00
21403;DHT22;10862;51.886;17.078;2023-02-21T16:47:50;7.90;1.00
21403;DHT22;10862;51.886;17.078;2023-02-21T16:50:36;7.90;1.00
21403;DHT22;10862;51.886;17.078;2023-02-21T16:53:03;7.90;1.00
21403;DHT22;10862;51.886;17.078;2023-02-21T16:55:29;8.00;1.00
21403;DHT22;10862;51.886;17.078;2023-02-21T16:57:59;7.90;1.00
21403;DHT22;10862;51.886;17.078;2023-02-21T17:00:27;7.90;1.00
21403;DHT22;10862;51.886;17.078;2023-02-21T17:02:52;7.90;1.00
21403;DHT22;10862;51.886;17.078;2023-02-21T17:05:20;7.90;1.00
21403;DHT22;10862;51.886;17.078;2023-02-21T17:07:47;7.90;1.00
21403;DHT22;10862;51.886;17.078;2023-02-21T17:10:14;7.90;1.00
21403;DHT22;10862;51.886;17.078;2023-02-21T17:12:40;7.80;1.00
21403;DHT22;10862;51.886;17.078;2023-02-21T17:15:06;7.90;1.00
21403;DHT22;10862;51.886;17.078;2023-02-21T17:17:31;7.90;1.00
21403;DHT22;10862;51.886;17.078;2023-02-21T17:19:57;7.90;1.00
21403;DHT22;10862;51.886;17.078;2023-02-21T17:22:23;7.90;1.00
21403;DHT22;10862;51.886;17.078;2023-02-21T17:24:49;7.90;1.00
21403;DHT22;10862;51.886;17.078;2023-02-21T17:27:14;7.90;1.00
21403;DHT22;10862;51.886;17.078;2023-02-21T17:29:40;7.90;1.00
21403;DHT22;10862;51.886;17.078;2023-02-21T17:32:06;7.90;1.00
21403;DHT22;10862;51.886;17.078;2023-02-21T17:34:33;7.90;1.00
21403;DHT22;10862;51.886;17.078;2023-02-21T17:36:59;7.90;1.00
21403;DHT22;10862;51.886;17.078;2023-02-21T17:39:25;7.90;1.00
21403;DHT22;10862;51.886;17.078;2023-02-21T17:41:51;7.90;1.00
21403;DHT22;10862;51.886;17.078;2023-02-21T17:44:18;7.90;1.00
21403;DHT22;10862;51.886;17.078;2023-02-21T17:46:48;7.90;1.00
21403;DHT22;10862;51.886;17.078;2023-02-21T17:49:16;7.90;1.00
21403;DHT22;10862;51.886;17.078;2023-02-21T17:51:42;7.80;1.00
21403;DHT22;10862;51.886;17.078;2023-02-21T17:54:08;7.80;1.00
21403;DHT22;10862;51.886;17.078;2023-02-21T17:56:33;7.80;1.00
21403;DHT22;10862;51.886;17.078;2023-02-21T17:58:59;7.80;1.00
21403;DHT22;10862;51.886;17.078;2023-02-21T18:01:25;7.70;1.00
21403;DHT22;10862;51.886;17.078;2023-02-21T18:03:53;7.70;1.00
21403;DHT22;10862;51.886;17.078;2023-02-21T18:06:19;7.70;1.00
21403;DHT22;10862;51.886;17.078;2023-02-21T18:08:45;7.70;1.00
21403;DHT22;10862;51.886;17.078;2023-02-21T18:11:13;7.70;1.00
21403;DHT22;10862;51.886;17.078;2023-02-21T18:13:39;7.70;1.00
21403;DHT22;10862;51.886;17.078;2023-02-21T18:16:05;7.70;1.00
21403;DHT22;10862;51.886;17.078;2023-02-21T18:18:32;7.60;1.00
21403;DHT22;10862;51.886;17.078;2023-02-21T18:20:58;7.60;1.00
21403;DHT22;10862;51.886;17.078;2023-02-21T18:23:28;7.60;1.00
21403;DHT22;10862;51.886;17.078;2023-02-21T18:25:54;7.60;1.00
21403;DHT22;10862;51.886;17.078;2023-02-21T18:28:20;7.60;1.00
21403;DHT22;10862;51.886;17.078;2023-02-21T18:30:46;7.60;1.00
21403;DHT22;10862;51.886;17.078;2023-02-21T18:33:13;7.60;1.00
21403;DHT22;10862;51.886;17.078;2023-02-21T18:35:38;7.50;1.00
21403;DHT22;10862;51.886;17.078;2023-02-21T18:38:04;7.60;1.00
21403;DHT22;10862;51.886;17.078;2023-02-21T18:40:30;7.60;1.00
21403;DHT22;10862;51.886;17.078;2023-02-21T18:43:02;7.60;1.00
21403;DHT22;10862;51.886;17.078;2023-02-21T18:45:30;7.60;1.00
21403;DHT22;10862;51.886;17.078;2023-02-21T18:48:00;7.60;1.00
21403;DHT22;10862;51.886;17.078;2023-02-21T18:50:26;7.60;1.00
21403;DHT22;10862;51.886;17.078;2023-02-21T18:52:51;7.60;1.00
21403;DHT22;10862;51.886;17.078;2023-02-21T18:55:17;7.60;1.00
21403;DHT22;10862;51.886;17.078;2023-02-21T18:57:45;7.50;1.00
21403;DHT22;10862;51.886;17.078;2023-02-21T19:00:21;7.50;1.00